createdAt,value
2023-09-29T00:01:16.713Z,62.44
2023-09-29T00:03:48.193Z,62.18
2023-09-29T00:06:16.488Z,62.41
2023-09-29T00:08:47.086Z,62.14
2023-09-29T00:11:15.417Z,62.21
2023-09-29T00:13:43.613Z,61.94
2023-09-29T00:16:11.761Z,62.00
2023-09-29T00:18:39.911Z,61.70
2023-09-29T00:21:09.274Z,61.98
2023-09-29T00:23:37.629Z,62.10
2023-09-29T00:26:06.351Z,62.23
2023-09-29T00:28:34.537Z,62.38
2023-09-29T00:34:21.174Z,62.20
2023-09-29T00:36:52.318Z,62.27
2023-09-29T00:39:20.378Z,61.96
2023-09-29T00:41:50.454Z,62.22
2023-09-29T00:44:18.816Z,61.77
2023-09-29T00:46:47.281Z,61.81
2023-09-29T00:49:15.808Z,61.73
2023-09-29T00:51:44.063Z,61.80
2023-09-29T00:54:15.314Z,62.01
2023-09-29T00:56:44.432Z,62.18
2023-09-29T00:59:12.660Z,61.90
2023-09-29T01:01:42.664Z,62.43
2023-09-29T01:04:11.695Z,62.48
2023-09-29T01:06:42.601Z,62.08
2023-09-29T01:09:12.998Z,62.20
2023-09-29T01:11:44.519Z,62.06
2023-09-29T01:14:14.013Z,61.70
2023-09-29T01:16:43.402Z,61.79
2023-09-29T01:19:13.875Z,61.68
2023-09-29T01:21:45.387Z,61.66
2023-09-29T01:24:15.863Z,61.60
2023-09-29T01:26:46.231Z,61.28
2023-09-29T01:29:14.452Z,61.36
2023-09-29T01:31:42.981Z,61.49
2023-09-29T01:34:11.133Z,60.96
2023-09-29T01:36:40.376Z,60.86
2023-09-29T01:39:09.725Z,60.98
2023-09-29T01:41:39.179Z,60.58
2023-09-29T01:44:07.769Z,60.24
2023-09-29T01:46:37.975Z,60.37
2023-09-29T01:49:08.181Z,60.22
2023-09-29T01:51:36.609Z,60.15
2023-09-29T01:54:05.082Z,60.31
2023-09-29T01:56:33.302Z,60.07
2023-09-29T01:59:04.220Z,59.98
2023-09-29T02:01:35.322Z,59.90
2023-09-29T02:04:03.430Z,59.78
2023-09-29T02:06:32.404Z,59.94
2023-09-29T02:09:00.551Z,59.89
2023-09-29T02:11:29.238Z,59.73
2023-09-29T02:13:57.908Z,59.40
2023-09-29T02:16:27.321Z,59.56
2023-09-29T02:18:56.687Z,59.10
2023-09-29T02:21:29.144Z,59.31
2023-09-29T02:23:57.618Z,59.22
2023-09-29T02:26:26.526Z,59.09
2023-09-29T02:28:55.941Z,59.28
2023-09-29T02:31:28.059Z,59.06
2023-09-29T02:33:58.226Z,58.79
2023-09-29T02:36:26.380Z,58.85
2023-09-29T02:38:54.921Z,58.96
2023-09-29T02:41:23.552Z,58.77
2023-09-29T02:43:51.630Z,58.98
2023-09-29T02:46:21.975Z,58.99
2023-09-29T02:48:50.708Z,59.21
2023-09-29T02:51:21.307Z,58.87
2023-09-29T02:53:51.032Z,59.38
2023-09-29T02:56:19.684Z,58.65
2023-09-29T02:58:48.561Z,58.94
2023-09-29T03:01:17.531Z,58.79
2023-09-29T03:03:46.531Z,58.60
2023-09-29T03:06:20.138Z,58.36
2023-09-29T03:08:52.463Z,58.75
2023-09-29T03:11:20.619Z,58.74
2023-09-29T03:13:48.691Z,58.43
2023-09-29T03:16:18.128Z,58.71
2023-09-29T03:18:47.575Z,58.81
2023-09-29T03:21:16.611Z,58.72
2023-09-29T03:23:46.417Z,58.79
2023-09-29T03:26:19.139Z,58.98
2023-09-29T03:28:47.400Z,58.99
2023-09-29T03:31:15.634Z,59.00
2023-09-29T03:33:44.013Z,58.71
2023-09-29T03:36:13.734Z,58.65
2023-09-29T03:38:42.119Z,58.88
2023-09-29T03:41:11.832Z,58.72
2023-09-29T03:43:41.556Z,59.04
2023-09-29T03:46:20.601Z,58.60
2023-09-29T03:48:49.438Z,58.58
2023-09-29T03:51:24.334Z,58.57
2023-09-29T03:53:52.575Z,58.70
2023-09-29T03:56:24.106Z,58.81
2023-09-29T03:58:55.064Z,58.63
2023-09-29T04:01:24.106Z,59.04
2023-09-29T04:03:52.307Z,58.46
2023-09-29T04:06:20.483Z,58.14
2023-09-29T04:08:48.917Z,58.45
2023-09-29T04:11:17.166Z,58.68
2023-09-29T04:13:45.188Z,58.69
2023-09-29T04:16:15.285Z,58.86
2023-09-29T04:18:43.510Z,59.04
2023-09-29T04:21:18.057Z,59.05
2023-09-29T04:23:48.169Z,59.54
2023-09-29T04:26:17.494Z,59.53
2023-09-29T04:28:45.717Z,59.86
2023-09-29T04:31:15.252Z,59.94
2023-09-29T04:33:43.478Z,60.12
2023-09-29T04:36:12.432Z,60.08
2023-09-29T04:38:42.366Z,60.07
2023-09-29T04:41:10.725Z,59.73
2023-09-29T04:43:38.834Z,59.64
2023-09-29T04:46:07.071Z,59.66
2023-09-29T04:48:36.556Z,59.31
2023-09-29T04:51:04.980Z,59.42
2023-09-29T04:53:33.150Z,59.24
2023-09-29T04:56:02.152Z,59.25
2023-09-29T04:58:30.740Z,59.42
2023-09-29T05:00:58.783Z,59.66
2023-09-29T05:03:27.389Z,59.71
2023-09-29T05:05:57.481Z,59.71
2023-09-29T05:08:25.633Z,59.90
2023-09-29T05:10:54.122Z,59.64
2023-09-29T05:13:22.194Z,59.35
2023-09-29T05:15:50.282Z,59.86
2023-09-29T05:18:18.590Z,60.12
2023-09-29T05:20:46.758Z,60.27
2023-09-29T05:23:16.313Z,60.51
2023-09-29T05:25:47.887Z,60.94
2023-09-29T05:28:16.557Z,61.27
2023-09-29T05:30:55.429Z,61.31
2023-09-29T05:33:23.763Z,61.51
2023-09-29T05:35:52.415Z,61.61
2023-09-29T05:38:22.232Z,62.09
2023-09-29T05:40:52.441Z,61.83
2023-09-29T05:43:21.030Z,62.23
2023-09-29T05:45:49.983Z,62.18
2023-09-29T05:48:18.309Z,62.35
2023-09-29T05:50:48.279Z,62.16
2023-09-29T05:53:17.862Z,62.09
2023-09-29T05:55:47.491Z,61.21
2023-09-29T05:58:15.655Z,61.22
2023-09-29T06:00:43.793Z,61.12
2023-09-29T06:03:11.878Z,60.78
2023-09-29T06:05:40.880Z,60.19
2023-09-29T06:08:09.093Z,60.08
2023-09-29T06:10:38.837Z,59.59
2023-09-29T06:13:10.610Z,59.37
2023-09-29T06:15:40.062Z,59.23
2023-09-29T06:18:08.952Z,59.39
2023-09-29T06:20:37.077Z,59.18
2023-09-29T06:23:05.715Z,58.89
2023-09-29T06:25:34.214Z,59.49
2023-09-29T06:28:02.405Z,59.44
2023-09-29T06:30:32.027Z,59.53
2023-09-29T06:33:00.233Z,59.21
2023-09-29T06:35:30.998Z,59.51
2023-09-29T06:37:59.183Z,59.92
2023-09-29T06:40:28.410Z,60.08
2023-09-29T06:42:57.866Z,59.42
2023-09-29T06:45:29.370Z,58.81
2023-09-29T06:48:10.413Z,59.11
2023-09-29T06:50:38.520Z,59.18
2023-09-29T06:53:06.786Z,58.52
2023-09-29T06:55:34.862Z,58.20
2023-09-29T06:58:05.928Z,58.22
2023-09-29T07:00:38.627Z,58.13
2023-09-29T07:03:13.623Z,58.02
2023-09-29T07:05:43.308Z,57.90
2023-09-29T07:08:11.454Z,57.79
2023-09-29T07:10:39.555Z,58.30
2023-09-29T07:13:07.734Z,58.39
2023-09-29T07:15:35.940Z,58.19
2023-09-29T07:18:04.177Z,58.03
2023-09-29T07:20:32.975Z,58.28
2023-09-29T07:23:04.184Z,59.02
2023-09-29T07:25:35.267Z,59.25
2023-09-29T07:28:03.358Z,58.70
2023-09-29T07:30:31.437Z,58.33
2023-09-29T07:33:00.022Z,58.07
2023-09-29T07:35:28.487Z,58.07
2023-09-29T07:37:56.703Z,57.61
2023-09-29T07:40:26.170Z,57.71
2023-09-29T07:42:54.458Z,57.70
2023-09-29T07:45:23.316Z,57.23
2023-09-29T07:47:51.669Z,57.75
2023-09-29T07:50:20.471Z,57.48
2023-09-29T07:52:48.739Z,57.55
2023-09-29T07:55:17.707Z,57.56
2023-09-29T07:57:47.228Z,57.43
2023-09-29T08:00:16.520Z,57.87
2023-09-29T08:02:47.487Z,57.82
2023-09-29T08:05:16.974Z,57.62
2023-09-29T08:07:45.126Z,57.15
2023-09-29T08:10:13.363Z,58.28
2023-09-29T08:12:41.589Z,58.09
2023-09-29T08:15:14.674Z,57.81
2023-09-29T08:17:45.095Z,57.95
2023-09-29T08:20:15.944Z,57.75
2023-09-29T08:22:44.552Z,57.68
2023-09-29T08:25:13.062Z,57.10
2023-09-29T08:27:41.602Z,55.83
2023-09-29T08:30:12.921Z,56.08
2023-09-29T08:32:44.728Z,56.82
2023-09-29T08:35:14.603Z,55.91
2023-09-29T08:37:43.845Z,55.43
2023-09-29T08:40:14.316Z,53.82
2023-09-29T08:42:50.549Z,55.45
2023-09-29T08:45:24.426Z,54.32
2023-09-29T08:47:54.476Z,53.69
2023-09-29T08:50:25.444Z,52.88
2023-09-29T08:52:55.289Z,52.65
2023-09-29T08:55:25.682Z,52.28
2023-09-29T08:57:56.060Z,52.60
2023-09-29T09:00:27.899Z,53.02
2023-09-29T09:03:01.666Z,53.25
2023-09-29T09:05:30.522Z,52.98
2023-09-29T09:08:02.398Z,52.22
2023-09-29T09:10:35.645Z,52.40
2023-09-29T09:13:04.569Z,52.41
2023-09-29T09:15:34.266Z,52.72
2023-09-29T09:18:03.002Z,51.54
2023-09-29T09:20:32.550Z,50.57
2023-09-29T09:23:03.665Z,50.60
2023-09-29T09:25:37.723Z,50.31
2023-09-29T09:28:31.452Z,50.75
2023-09-29T09:31:03.964Z,51.16
2023-09-29T09:33:32.604Z,50.87
2023-09-29T09:36:06.606Z,50.88
2023-09-29T09:38:35.560Z,50.35
2023-09-29T09:41:03.999Z,50.70
2023-09-29T09:43:36.497Z,50.50
2023-09-29T09:46:12.437Z,51.35
2023-09-29T09:48:50.991Z,50.72
2023-09-29T09:51:36.945Z,51.18
2023-09-29T09:54:09.296Z,51.25
2023-09-29T09:56:49.023Z,51.44
2023-09-29T09:59:18.089Z,51.13
2023-09-29T10:01:47.995Z,49.83
2023-09-29T10:04:16.638Z,49.58
2023-09-29T10:06:46.199Z,47.85
2023-09-29T10:09:14.884Z,47.73
2023-09-29T10:11:45.379Z,47.83
2023-09-29T10:14:13.627Z,47.61
2023-09-29T10:16:42.115Z,47.23
2023-09-29T10:19:13.609Z,47.41
2023-09-29T10:21:46.901Z,47.03
2023-09-29T10:24:27.519Z,47.13
2023-09-29T10:26:55.890Z,47.01
2023-09-29T10:29:33.284Z,46.91
2023-09-29T10:32:12.102Z,46.44
2023-09-29T10:34:41.902Z,46.06
2023-09-29T10:37:11.216Z,46.22
2023-09-29T10:39:41.199Z,46.55
2023-09-29T10:42:14.128Z,47.04
2023-09-29T10:44:46.608Z,45.88
2023-09-29T10:47:17.977Z,46.25
2023-09-29T10:49:48.903Z,46.12
2023-09-29T10:52:23.720Z,46.27
2023-09-29T10:54:59.804Z,46.67
2023-09-29T10:57:29.790Z,46.06
2023-09-29T11:00:01.833Z,45.45
2023-09-29T11:02:32.742Z,44.01
2023-09-29T11:05:06.810Z,45.11
2023-09-29T11:07:50.847Z,45.38
2023-09-29T11:10:20.454Z,45.19
2023-09-29T11:12:49.554Z,46.01
2023-09-29T11:15:19.836Z,46.52
2023-09-29T11:17:50.339Z,45.38
2023-09-29T11:20:28.185Z,44.63
2023-09-29T11:23:08.248Z,46.00
2023-09-29T11:25:49.677Z,45.40
2023-09-29T11:28:18.293Z,45.67
2023-09-29T11:30:46.486Z,46.13
2023-09-29T11:36:22.458Z,45.16
2023-09-29T11:38:51.865Z,43.92
2023-09-29T11:41:22.350Z,44.64
2023-09-29T11:43:51.320Z,44.62
2023-09-29T11:46:19.780Z,45.87
2023-09-29T11:48:48.148Z,44.67
2023-09-29T11:51:16.294Z,43.15
2023-09-29T11:53:46.029Z,44.87
2023-09-29T11:56:14.160Z,44.08
2023-09-29T11:58:42.363Z,43.14
2023-09-29T12:01:10.734Z,42.85
2023-09-29T12:03:39.066Z,42.52
2023-09-29T12:06:08.204Z,42.62
2023-09-29T12:08:37.566Z,42.28
2023-09-29T12:11:08.423Z,42.55
2023-09-29T12:13:39.281Z,42.44
2023-09-29T12:16:09.755Z,43.52
2023-09-29T12:18:37.920Z,42.81
2023-09-29T12:21:09.984Z,41.68
2023-09-29T12:23:38.136Z,42.14
2023-09-29T12:26:09.411Z,41.69
2023-09-29T12:28:37.667Z,43.64
2023-09-29T12:31:15.213Z,43.45
2023-09-29T12:33:43.365Z,44.08
2023-09-29T12:36:11.797Z,43.45
2023-09-29T12:38:39.936Z,45.27
2023-09-29T12:41:10.018Z,44.78
2023-09-29T12:43:38.650Z,44.25
2023-09-29T12:46:06.753Z,43.83
2023-09-29T12:48:35.711Z,44.00
2023-09-29T12:51:04.107Z,43.71
2023-09-29T12:53:33.064Z,44.93
2023-09-29T12:56:02.437Z,45.77
2023-09-29T12:58:31.877Z,44.16
2023-09-29T13:01:00.020Z,44.60
2023-09-29T13:03:28.310Z,44.36
2023-09-29T13:06:01.444Z,44.22
2023-09-29T13:08:31.133Z,43.65
2023-09-29T13:10:59.321Z,44.00
2023-09-29T13:13:27.961Z,44.31
2023-09-29T13:15:57.511Z,44.27
2023-09-29T13:18:27.689Z,45.22
2023-09-29T13:20:56.370Z,45.40
2023-09-29T13:23:25.956Z,45.36
2023-09-29T13:25:54.252Z,45.75
2023-09-29T13:28:22.437Z,45.96
2023-09-29T13:30:54.650Z,46.44
2023-09-29T13:33:28.293Z,46.10
2023-09-29T13:35:57.239Z,46.75
2023-09-29T13:38:25.522Z,46.92
2023-09-29T13:40:54.751Z,46.30
2023-09-29T13:43:23.391Z,45.55
2023-09-29T13:45:51.955Z,44.49
2023-09-29T13:48:23.293Z,44.49
2023-09-29T13:50:53.600Z,45.24
2023-09-29T13:53:22.938Z,45.28
2023-09-29T13:55:52.645Z,45.70
2023-09-29T13:58:21.225Z,45.76
2023-09-29T14:00:51.228Z,45.84
2023-09-29T14:03:19.830Z,46.33
2023-09-29T14:05:48.860Z,45.80
2023-09-29T14:08:20.341Z,46.48
2023-09-29T14:10:48.914Z,46.50
2023-09-29T14:13:18.196Z,46.60
2023-09-29T14:15:46.413Z,47.17
2023-09-29T14:18:14.992Z,48.22
2023-09-29T14:20:43.730Z,49.07
2023-09-29T14:23:12.841Z,49.95
2023-09-29T14:25:42.367Z,50.91
2023-09-29T14:28:10.815Z,51.28
2023-09-29T14:30:39.053Z,51.65
2023-09-29T14:33:07.935Z,52.12
2023-09-29T14:35:48.694Z,52.48
2023-09-29T14:38:19.097Z,52.77
2023-09-29T14:40:48.684Z,53.07
2023-09-29T14:43:17.883Z,53.26
2023-09-29T14:45:46.629Z,54.00
2023-09-29T14:48:15.334Z,54.26
2023-09-29T14:50:43.606Z,54.14
2023-09-29T14:53:11.791Z,54.53
2023-09-29T14:55:40.851Z,55.17
2023-09-29T14:58:12.601Z,55.40
2023-09-29T15:00:44.620Z,55.62
2023-09-29T15:03:14.877Z,55.43
2023-09-29T15:05:43.449Z,55.96
2023-09-29T15:08:12.201Z,55.59
2023-09-29T15:10:41.318Z,56.23
2023-09-29T15:13:11.095Z,56.09
2023-09-29T15:15:41.342Z,56.48
2023-09-29T15:18:09.997Z,56.21
2023-09-29T15:20:39.875Z,56.05
2023-09-29T15:23:09.807Z,55.79
2023-09-29T15:25:38.424Z,55.99
2023-09-29T15:28:08.094Z,55.85
2023-09-29T15:30:42.097Z,56.47
2023-09-29T15:33:10.989Z,56.00
2023-09-29T15:35:39.660Z,56.27
2023-09-29T15:38:07.838Z,55.89
2023-09-29T15:40:36.252Z,56.04
2023-09-29T15:43:04.522Z,55.70
2023-09-29T15:45:33.137Z,55.63
2023-09-29T15:48:03.041Z,55.38
2023-09-29T15:50:32.260Z,55.14
2023-09-29T15:53:00.988Z,55.19
2023-09-29T15:55:29.101Z,54.98
2023-09-29T15:57:57.316Z,55.80
2023-09-29T16:00:26.161Z,55.25
2023-09-29T16:02:55.261Z,54.97
2023-09-29T16:05:25.094Z,55.05
2023-09-29T16:07:53.677Z,54.50
2023-09-29T16:10:23.313Z,54.88
2023-09-29T16:12:51.379Z,54.98
2023-09-29T16:15:19.999Z,54.67
2023-09-29T16:17:48.311Z,55.26
2023-09-29T16:20:16.485Z,55.11
2023-09-29T16:22:46.141Z,55.31
2023-09-29T16:25:15.240Z,55.86
2023-09-29T16:27:43.366Z,55.64
2023-09-29T16:30:12.037Z,54.98
2023-09-29T16:32:40.296Z,55.02
2023-09-29T16:35:15.057Z,55.15
2023-09-29T16:37:46.378Z,54.40
2023-09-29T16:40:23.121Z,54.41
2023-09-29T16:42:57.007Z,54.49
2023-09-29T16:45:25.227Z,54.28
2023-09-29T16:47:53.520Z,54.59
2023-09-29T16:50:21.861Z,54.20
2023-09-29T16:52:51.303Z,54.23
2023-09-29T16:55:19.566Z,53.65
2023-09-29T16:57:47.736Z,53.69
2023-09-29T17:00:18.007Z,53.85
2023-09-29T17:02:46.486Z,53.68
2023-09-29T17:05:15.202Z,53.43
2023-09-29T17:07:43.354Z,53.85
2023-09-29T17:10:14.097Z,53.72
2023-09-29T17:12:43.115Z,53.06
2023-09-29T17:15:13.769Z,53.64
2023-09-29T17:17:43.124Z,53.79
2023-09-29T17:20:12.739Z,53.32
2023-09-29T17:22:41.453Z,53.88
2023-09-29T17:25:12.166Z,53.62
2023-09-29T17:27:40.326Z,53.95
2023-09-29T17:30:10.450Z,53.95
2023-09-29T17:32:38.652Z,53.51
2023-09-29T17:35:08.722Z,53.85
2023-09-29T17:37:36.890Z,53.82
2023-09-29T17:40:05.513Z,53.96
2023-09-29T17:42:34.959Z,53.82
2023-09-29T17:45:03.231Z,54.03
2023-09-29T17:47:31.870Z,53.78
2023-09-29T17:50:00.447Z,54.53
2023-09-29T17:52:28.822Z,54.48
2023-09-29T17:54:57.259Z,54.44
2023-09-29T17:57:25.471Z,54.69
2023-09-29T17:59:55.182Z,54.55
2023-09-29T18:02:23.390Z,54.78
2023-09-29T18:04:51.592Z,54.94
2023-09-29T18:07:22.232Z,55.36
2023-09-29T18:09:50.490Z,55.38
2023-09-29T18:12:18.860Z,55.42
2023-09-29T18:14:47.536Z,55.54
2023-09-29T18:17:16.939Z,55.87
2023-09-29T18:19:45.799Z,55.85
2023-09-29T18:22:14.035Z,55.55
2023-09-29T18:24:42.890Z,55.65
2023-09-29T18:27:11.312Z,55.76
2023-09-29T18:29:39.456Z,55.76
2023-09-29T18:32:08.235Z,55.45
2023-09-29T18:34:37.857Z,55.27
2023-09-29T18:37:06.825Z,55.64
2023-09-29T18:39:35.097Z,55.34
2023-09-29T18:42:03.459Z,55.54
2023-09-29T18:44:31.891Z,55.88
2023-09-29T18:47:00.102Z,55.69
2023-09-29T18:49:31.836Z,56.07
2023-09-29T18:52:01.603Z,56.08
2023-09-29T18:54:29.901Z,55.98
2023-09-29T18:56:58.069Z,56.02
2023-09-29T18:59:26.317Z,56.29
2023-09-29T19:01:54.485Z,56.31
2023-09-29T19:04:22.635Z,56.17
2023-09-29T19:06:51.090Z,56.52
2023-09-29T19:09:21.401Z,56.61
2023-09-29T19:11:50.159Z,56.46
2023-09-29T19:14:18.353Z,56.56
2023-09-29T19:16:46.636Z,56.63
2023-09-29T19:19:14.766Z,56.45
2023-09-29T19:21:42.886Z,56.48
2023-09-29T19:24:11.226Z,56.83
2023-09-29T19:26:40.892Z,56.90
2023-09-29T19:29:09.062Z,57.31
2023-09-29T19:31:37.474Z,57.06
2023-09-29T19:34:06.678Z,57.45
2023-09-29T19:36:35.378Z,57.28
2023-09-29T19:39:04.164Z,57.44
2023-09-29T19:41:33.593Z,57.61
2023-09-29T19:44:03.195Z,57.46
2023-09-29T19:46:35.452Z,57.46
2023-09-29T19:49:05.908Z,57.81
2023-09-29T19:51:34.323Z,58.11
2023-09-29T19:54:03.139Z,57.87
2023-09-29T19:56:34.938Z,58.05
2023-09-29T19:59:06.023Z,58.45
2023-09-29T20:01:34.418Z,58.51
2023-09-29T20:04:03.763Z,58.57
2023-09-29T20:06:32.075Z,58.71
2023-09-29T20:09:01.897Z,59.13
2023-09-29T20:11:30.301Z,59.38
2023-09-29T20:13:58.959Z,59.05
2023-09-29T20:16:28.959Z,59.44
2023-09-29T20:18:58.064Z,59.63
2023-09-29T20:21:26.959Z,59.51
2023-09-29T20:23:55.276Z,59.29
2023-09-29T20:26:23.589Z,59.19
2023-09-29T20:28:53.801Z,59.44
2023-09-29T20:31:22.425Z,59.31
2023-09-29T20:33:52.022Z,59.23
2023-09-29T20:36:20.347Z,59.92
2023-09-29T20:38:48.710Z,59.66
2023-09-29T20:41:16.864Z,59.58
2023-09-29T20:43:45.377Z,59.70
2023-09-29T20:46:13.683Z,59.79
2023-09-29T20:48:41.944Z,59.82
2023-09-29T20:51:14.803Z,59.87
2023-09-29T20:53:43.117Z,60.06
2023-09-29T20:56:12.669Z,60.28
2023-09-29T20:58:40.793Z,60.09
2023-09-29T21:01:09.461Z,60.37
2023-09-29T21:03:37.749Z,60.46
2023-09-29T21:06:07.973Z,60.44
2023-09-29T21:08:37.806Z,60.75
2023-09-29T21:11:05.919Z,60.92
2023-09-29T21:13:34.085Z,60.81
2023-09-29T21:16:03.286Z,61.05
2023-09-29T21:18:31.565Z,60.88
2023-09-29T21:20:59.746Z,60.72
2023-09-29T21:23:27.995Z,60.69
2023-09-29T21:25:57.471Z,60.87
2023-09-29T21:28:25.713Z,60.79
2023-09-29T21:30:53.809Z,60.81
2023-09-29T21:33:22.707Z,60.83
2023-09-29T21:35:51.111Z,60.88
2023-09-29T21:38:19.245Z,60.94
2023-09-29T21:40:47.471Z,60.83
2023-09-29T21:43:16.975Z,60.89
2023-09-29T21:45:45.332Z,60.88
2023-09-29T21:48:13.861Z,60.97
2023-09-29T21:50:42.077Z,61.22
2023-09-29T21:53:10.648Z,61.22
2023-09-29T21:55:38.808Z,61.16
2023-09-29T21:58:07.095Z,61.48
2023-09-29T22:00:40.003Z,61.65
2023-09-29T22:03:10.185Z,61.66
2023-09-29T22:05:41.841Z,61.44
2023-09-29T22:08:10.835Z,61.47
2023-09-29T22:10:39.131Z,61.45
2023-09-29T22:13:07.323Z,61.56
2023-09-29T22:15:37.152Z,61.58
2023-09-29T22:18:06.522Z,61.47
2023-09-29T22:20:34.801Z,61.95
2023-09-29T22:23:03.022Z,61.66
2023-09-29T22:25:31.662Z,61.95
2023-09-29T22:28:00.322Z,61.89
2023-09-29T22:30:28.996Z,61.56
2023-09-29T22:32:58.526Z,61.46
2023-09-29T22:35:26.670Z,61.62
2023-09-29T22:37:54.808Z,61.73
2023-09-29T22:40:24.969Z,61.24
2023-09-29T22:42:53.500Z,61.43
2023-09-29T22:45:21.627Z,61.26
2023-09-29T22:47:50.396Z,61.25
2023-09-29T22:50:20.073Z,61.62
2023-09-29T22:52:48.693Z,61.45
2023-09-29T22:55:16.991Z,61.66
2023-09-29T22:57:45.180Z,61.85
2023-09-29T23:00:15.422Z,61.55
2023-09-29T23:02:46.605Z,61.53
2023-09-29T23:05:14.962Z,61.62
2023-09-29T23:07:44.370Z,61.72
2023-09-29T23:10:15.367Z,61.47
2023-09-29T23:12:45.099Z,61.69
2023-09-29T23:15:14.968Z,61.97
2023-09-29T23:17:43.239Z,61.98
2023-09-29T23:20:12.933Z,62.07
2023-09-29T23:22:42.246Z,62.12
2023-09-29T23:25:12.814Z,62.20
2023-09-29T23:27:41.506Z,62.32
2023-09-29T23:30:11.215Z,62.39
2023-09-29T23:32:40.839Z,62.29
2023-09-29T23:35:10.821Z,62.55
2023-09-29T23:37:38.986Z,62.55
2023-09-29T23:40:08.101Z,62.52
2023-09-29T23:42:37.633Z,62.62
2023-09-29T23:45:07.900Z,62.59
2023-09-29T23:47:36.675Z,62.64
2023-09-29T23:50:06.050Z,62.84
2023-09-29T23:52:34.588Z,62.82
2023-09-29T23:55:03.058Z,62.64
2023-09-29T23:57:31.991Z,62.85
